createdAt,value
2022-11-05T00:02:38.657Z,9.87
2022-11-05T00:05:21.589Z,9.30
2022-11-05T00:08:08.746Z,8.13
2022-11-05T00:10:40.905Z,9.10
2022-11-05T00:13:24.889Z,9.80
2022-11-05T00:16:07.427Z,8.57
2022-11-05T00:18:39.910Z,8.27
2022-11-05T00:21:30.805Z,7.23
2022-11-05T00:24:13.021Z,8.17
2022-11-05T00:26:42.788Z,7.40
2022-11-05T00:29:12.569Z,7.30
2022-11-05T00:31:42.343Z,7.23
2022-11-05T00:34:14.695Z,6.93
2022-11-05T00:36:44.490Z,7.53
2022-11-05T00:39:14.686Z,7.07
2022-11-05T00:41:44.525Z,7.40
2022-11-05T00:44:26.758Z,6.90
2022-11-05T00:47:16.693Z,6.63
2022-11-05T00:49:46.469Z,6.40
2022-11-05T00:52:28.747Z,6.70
2022-11-05T00:54:58.476Z,6.70
2022-11-05T00:57:28.272Z,7.67
2022-11-05T00:59:58.053Z,7.13
2022-11-05T01:02:27.956Z,7.27
2022-11-05T01:05:00.486Z,7.47
2022-11-05T01:07:30.281Z,7.03
2022-11-05T01:10:01.214Z,6.70
2022-11-05T01:12:31.336Z,6.97
2022-11-05T01:15:01.234Z,6.40
2022-11-05T01:17:31.031Z,7.80
2022-11-05T01:20:03.485Z,7.20
2022-11-05T01:22:33.261Z,7.47
2022-11-05T01:25:03.056Z,7.40
2022-11-05T01:27:32.830Z,8.80
2022-11-05T01:30:02.574Z,7.67
2022-11-05T01:32:32.327Z,8.00
2022-11-05T01:35:04.905Z,5.80
2022-11-05T01:37:34.758Z,5.63
2022-11-05T01:40:04.917Z,5.53
2022-11-05T01:42:36.215Z,5.27
2022-11-05T01:45:14.948Z,5.70
2022-11-05T01:47:52.687Z,6.50
2022-11-05T01:50:47.370Z,5.43
2022-11-05T01:53:24.502Z,5.53
2022-11-05T01:55:59.831Z,4.97
2022-11-05T01:58:35.379Z,4.90
2022-11-05T02:01:05.211Z,4.93
2022-11-05T02:03:35.170Z,5.37
2022-11-05T02:06:09.400Z,5.57
2022-11-05T02:08:56.541Z,5.77
2022-11-05T02:11:26.922Z,7.20
2022-11-05T02:13:56.725Z,6.13
2022-11-05T02:16:38.286Z,6.50
2022-11-05T02:19:23.332Z,6.27
2022-11-05T02:22:14.463Z,4.77
2022-11-05T02:25:08.048Z,4.73
2022-11-05T02:27:58.082Z,4.60
2022-11-05T02:30:40.053Z,5.10
2022-11-05T02:33:19.903Z,4.20
2022-11-05T02:36:13.608Z,4.00
2022-11-05T02:38:58.585Z,5.40
2022-11-05T02:41:36.836Z,5.00
2022-11-05T02:44:17.704Z,5.93
2022-11-05T02:46:56.985Z,5.80
2022-11-05T02:49:39.316Z,5.30
2022-11-05T02:52:17.307Z,5.10
2022-11-05T02:54:53.810Z,5.60
2022-11-05T02:57:25.113Z,5.97
2022-11-05T03:00:03.725Z,5.83
2022-11-05T03:02:36.735Z,5.20
2022-11-05T03:05:07.972Z,5.20
2022-11-05T03:07:48.113Z,4.33
2022-11-05T03:10:36.397Z,5.27
2022-11-05T03:13:16.891Z,4.23
2022-11-05T03:15:59.256Z,3.50
2022-11-05T03:18:42.936Z,3.80
2022-11-05T03:21:18.813Z,2.70
2022-11-05T03:23:53.489Z,2.53
2022-11-05T03:26:28.507Z,2.87
2022-11-05T03:29:03.244Z,2.50
2022-11-05T03:31:34.043Z,2.40
2022-11-05T03:34:09.280Z,3.10
2022-11-05T03:36:43.460Z,2.97
2022-11-05T03:39:22.072Z,3.10
2022-11-05T03:41:54.621Z,3.20
2022-11-05T03:44:28.181Z,2.90
2022-11-05T03:47:03.694Z,3.03
2022-11-05T03:49:41.373Z,2.80
2022-11-05T03:52:15.585Z,3.17
2022-11-05T03:54:45.518Z,3.70
2022-11-05T03:57:22.040Z,4.10
2022-11-05T03:59:53.553Z,4.20
2022-11-05T04:02:26.569Z,4.00
2022-11-05T04:04:59.027Z,3.57
2022-11-05T04:07:41.321Z,3.67
2022-11-05T04:10:24.548Z,3.20
2022-11-05T04:13:06.797Z,2.90
2022-11-05T04:15:56.896Z,3.20
2022-11-05T04:18:24.058Z,3.37
2022-11-05T04:21:08.852Z,4.43
2022-11-05T04:23:51.079Z,4.77
2022-11-05T04:26:23.396Z,4.60
2022-11-05T04:29:07.969Z,4.80
2022-11-05T04:31:37.863Z,4.53
2022-11-05T04:34:07.687Z,4.57
2022-11-05T04:36:40.059Z,4.87
2022-11-05T04:39:09.850Z,4.70
2022-11-05T04:41:39.821Z,6.33
2022-11-05T04:44:09.608Z,6.00
2022-11-05T04:46:39.354Z,6.07
2022-11-05T04:49:09.128Z,5.43
2022-11-05T04:51:41.454Z,5.80
2022-11-05T04:54:11.238Z,5.70
2022-11-05T04:56:40.981Z,5.17
2022-11-05T04:59:10.731Z,4.90
2022-11-05T05:01:40.741Z,4.90
2022-11-05T05:04:10.597Z,5.67
2022-11-05T05:06:42.889Z,5.40
2022-11-05T05:09:12.685Z,5.90
2022-11-05T05:11:42.411Z,6.03
2022-11-05T05:14:12.586Z,5.10
2022-11-05T05:16:42.345Z,5.67
2022-11-05T05:19:12.115Z,7.70
2022-11-05T05:21:42.397Z,8.93
2022-11-05T05:24:14.318Z,9.40
2022-11-05T05:26:45.843Z,10.07
2022-11-05T05:29:16.210Z,8.60
2022-11-05T05:31:46.692Z,9.50
2022-11-05T05:34:17.317Z,9.50
2022-11-05T05:36:49.838Z,10.27
2022-11-05T05:39:19.691Z,9.70
2022-11-05T05:41:49.480Z,11.90
2022-11-05T05:44:19.189Z,11.83
2022-11-05T05:46:48.926Z,11.90
2022-11-05T05:49:18.938Z,12.40
2022-11-05T05:51:51.285Z,11.40
2022-11-05T05:54:30.886Z,10.97
2022-11-05T05:57:03.786Z,9.00
2022-11-05T05:59:35.602Z,9.63
2022-11-05T06:02:06.549Z,8.33
2022-11-05T06:04:41.062Z,9.37
2022-11-05T06:07:14.534Z,10.67
2022-11-05T06:09:45.298Z,10.90
2022-11-05T06:12:16.137Z,10.93
2022-11-05T06:14:51.059Z,11.90
2022-11-05T06:17:21.924Z,12.20
2022-11-05T06:19:51.706Z,12.33
2022-11-05T06:22:24.764Z,13.30
2022-11-05T06:24:54.758Z,13.13
2022-11-05T06:27:24.562Z,13.40
2022-11-05T06:29:55.538Z,13.10
2022-11-05T06:32:25.418Z,13.10
2022-11-05T06:35:00.051Z,14.00
2022-11-05T06:37:34.236Z,14.10
2022-11-05T06:40:05.069Z,13.33
2022-11-05T06:42:35.904Z,12.80
2022-11-05T06:45:07.849Z,12.93
2022-11-05T06:47:37.733Z,14.53
2022-11-05T06:50:09.451Z,13.60
2022-11-05T06:52:42.840Z,12.20
2022-11-05T06:55:13.708Z,14.70
2022-11-05T06:57:45.578Z,14.17
2022-11-05T07:00:17.642Z,15.80
2022-11-05T07:02:49.085Z,14.30
2022-11-05T07:05:20.334Z,13.20
2022-11-05T07:07:53.712Z,14.43
2022-11-05T07:10:24.611Z,15.80
2022-11-05T07:12:55.492Z,16.20
2022-11-05T07:15:26.489Z,16.00
2022-11-05T07:18:01.116Z,17.70
2022-11-05T07:20:34.202Z,16.60
2022-11-05T07:23:10.789Z,16.30
2022-11-05T07:25:41.980Z,17.77
2022-11-05T07:28:14.571Z,19.00
2022-11-05T07:30:45.478Z,18.07
2022-11-05T07:33:15.422Z,18.63
2022-11-05T07:35:45.354Z,19.20
2022-11-05T07:38:23.672Z,19.10
2022-11-05T07:40:53.496Z,19.53
2022-11-05T07:43:24.307Z,19.07
2022-11-05T07:45:59.245Z,19.73
2022-11-05T07:48:31.113Z,21.20
2022-11-05T07:51:01.894Z,20.50
2022-11-05T07:53:34.308Z,20.73
2022-11-05T07:56:05.095Z,20.50
2022-11-05T07:58:37.028Z,20.53
2022-11-05T08:01:08.168Z,21.10
2022-11-05T08:03:40.145Z,20.90
2022-11-05T08:06:11.087Z,22.20
2022-11-05T08:08:44.469Z,21.90
2022-11-05T08:11:14.749Z,22.17
2022-11-05T08:13:45.060Z,23.83
2022-11-05T08:16:15.881Z,23.77
2022-11-05T08:18:45.913Z,22.80
2022-11-05T08:21:16.772Z,22.97
2022-11-05T08:23:50.145Z,23.60
2022-11-05T08:26:20.921Z,23.77
2022-11-05T08:28:51.693Z,24.60
2022-11-05T08:31:22.491Z,23.83
2022-11-05T08:33:57.114Z,24.67
2022-11-05T08:36:30.585Z,24.30
2022-11-05T08:39:04.330Z,24.57
2022-11-05T08:41:34.297Z,24.43
2022-11-05T08:44:09.263Z,24.50
2022-11-05T08:46:41.790Z,22.70
2022-11-05T08:49:12.067Z,23.90
2022-11-05T08:51:41.969Z,22.53
2022-11-05T08:54:16.117Z,24.23
2022-11-05T08:56:47.858Z,24.70
2022-11-05T08:59:18.694Z,24.30
2022-11-05T09:01:50.546Z,25.03
2022-11-05T09:04:21.462Z,27.67
2022-11-05T09:06:56.176Z,23.83
2022-11-05T09:09:28.550Z,23.50
2022-11-05T09:12:12.350Z,22.50
2022-11-05T09:14:43.631Z,23.20
2022-11-05T09:17:19.664Z,25.53
2022-11-05T09:19:49.511Z,25.47
2022-11-05T09:22:19.448Z,24.47
2022-11-05T09:24:51.807Z,23.00
2022-11-05T09:27:21.655Z,23.93
2022-11-05T09:29:51.410Z,22.50
2022-11-05T09:32:23.255Z,23.43
2022-11-05T09:34:54.071Z,26.07
2022-11-05T09:37:23.845Z,23.03
2022-11-05T09:39:57.500Z,25.00
2022-11-05T09:42:32.151Z,24.90
2022-11-05T09:45:05.978Z,24.00
2022-11-05T09:47:39.639Z,23.60
2022-11-05T09:50:17.264Z,22.13
2022-11-05T09:52:48.312Z,20.93
2022-11-05T09:55:28.059Z,21.87
2022-11-05T09:58:01.654Z,22.33
2022-11-05T10:00:34.245Z,20.33
2022-11-05T10:03:10.472Z,19.87
2022-11-05T10:05:43.817Z,20.20
2022-11-05T10:08:20.460Z,20.60
2022-11-05T10:10:56.480Z,21.50
2022-11-05T10:13:32.424Z,19.03
2022-11-05T10:16:07.586Z,21.00
2022-11-05T10:18:41.015Z,19.70
2022-11-05T10:21:32.245Z,21.10
2022-11-05T10:24:18.009Z,20.50
2022-11-05T10:26:55.233Z,22.10
2022-11-05T10:29:30.296Z,20.90
2022-11-05T10:32:05.649Z,21.27
2022-11-05T10:34:38.788Z,21.70
2022-11-05T10:37:08.947Z,22.43
2022-11-05T10:39:39.365Z,22.13
2022-11-05T10:42:40.547Z,24.20
2022-11-05T10:45:23.168Z,23.13
2022-11-05T10:48:03.944Z,22.83
2022-11-05T10:50:35.386Z,25.37
2022-11-05T10:53:14.214Z,23.80
2022-11-05T10:55:51.429Z,26.40
2022-11-05T10:58:30.217Z,26.90
2022-11-05T11:01:13.304Z,27.40
2022-11-05T11:03:49.827Z,30.27
2022-11-05T11:06:25.058Z,30.53
2022-11-05T11:08:59.436Z,30.43
2022-11-05T11:11:33.273Z,30.73
2022-11-05T11:14:09.540Z,30.43
2022-11-05T11:16:42.394Z,30.00
2022-11-05T11:19:29.414Z,31.10
2022-11-05T11:22:22.851Z,28.80
2022-11-05T11:24:55.542Z,29.10
2022-11-05T11:27:29.320Z,29.13
2022-11-05T11:30:04.771Z,25.23
2022-11-05T11:32:39.185Z,25.60
2022-11-05T11:35:21.364Z,23.60
2022-11-05T11:37:55.231Z,24.67
2022-11-05T11:40:34.542Z,24.60
2022-11-05T11:43:09.195Z,23.00
2022-11-05T11:45:53.337Z,22.77
2022-11-05T11:48:28.618Z,20.53
2022-11-05T11:51:00.342Z,22.00
2022-11-05T11:53:37.185Z,21.90
2022-11-05T11:56:17.534Z,20.53
2022-11-05T11:58:50.006Z,20.47
2022-11-05T12:02:02.160Z,19.70
2022-11-05T12:04:48.778Z,17.90
2022-11-05T12:07:30.964Z,18.33
2022-11-05T12:10:17.101Z,17.53
2022-11-05T12:12:57.048Z,16.93
2022-11-05T12:15:40.808Z,16.83
2022-11-05T12:18:22.387Z,16.57
2022-11-05T12:21:34.633Z,15.10
2022-11-05T12:24:31.277Z,15.90
2022-11-05T12:27:13.733Z,11.90
2022-11-05T12:29:56.595Z,11.70
2022-11-05T12:32:51.818Z,10.30
2022-11-05T12:35:46.997Z,9.63
2022-11-05T12:38:32.094Z,7.70
2022-11-05T12:41:18.345Z,8.70
2022-11-05T12:44:01.594Z,8.63
2022-11-05T12:46:41.056Z,7.37
2022-11-05T12:49:41.240Z,8.57
2022-11-05T12:52:39.732Z,8.87
2022-11-05T12:55:17.034Z,7.73
2022-11-05T12:57:50.853Z,6.53
2022-11-05T13:00:23.439Z,6.30
2022-11-05T13:02:57.793Z,5.87
2022-11-05T13:05:37.358Z,5.50
2022-11-05T13:08:13.195Z,5.07
2022-11-05T13:10:50.847Z,4.70
2022-11-05T13:13:29.383Z,5.20
2022-11-05T13:16:06.081Z,5.50
2022-11-05T13:18:44.106Z,4.40
2022-11-05T13:21:14.588Z,5.33
2022-11-05T13:23:52.506Z,4.83
2022-11-05T13:26:29.449Z,4.90
2022-11-05T13:29:05.552Z,5.07
2022-11-05T13:31:48.229Z,4.90
2022-11-05T13:34:18.088Z,4.80
2022-11-05T13:37:06.354Z,5.00
2022-11-05T13:39:44.222Z,5.17
2022-11-05T13:42:45.280Z,4.97
2022-11-05T13:46:08.645Z,5.83
2022-11-05T13:48:59.731Z,4.97
2022-11-05T13:51:53.824Z,4.80
2022-11-05T13:54:49.790Z,4.87
2022-11-05T13:57:49.117Z,4.37
2022-11-05T14:00:22.731Z,3.80
2022-11-05T14:02:57.207Z,5.00
2022-11-05T14:05:33.375Z,5.70
2022-11-05T14:08:12.853Z,4.73
2022-11-05T14:10:47.802Z,4.63
2022-11-05T14:13:26.216Z,4.60
2022-11-05T14:16:05.888Z,5.13
2022-11-05T14:18:46.088Z,4.57
2022-11-05T14:21:32.618Z,4.90
2022-11-05T14:24:20.767Z,5.70
2022-11-05T14:27:21.870Z,5.67
2022-11-05T14:29:54.406Z,5.10
2022-11-05T14:32:29.154Z,5.17
2022-11-05T14:35:05.421Z,4.80
2022-11-05T14:37:39.498Z,5.30
2022-11-05T14:40:32.842Z,5.97
2022-11-05T14:43:05.981Z,4.90
2022-11-05T14:45:42.806Z,5.47
2022-11-05T14:48:30.030Z,5.23
2022-11-05T14:51:02.199Z,4.87
2022-11-05T14:53:39.262Z,4.97
2022-11-05T14:56:12.335Z,4.63
2022-11-05T14:58:44.932Z,6.13
2022-11-05T15:01:44.881Z,5.60
2022-11-05T15:04:29.571Z,4.93
2022-11-05T15:07:37.540Z,5.10
2022-11-05T15:10:14.408Z,5.47
2022-11-05T15:12:48.500Z,6.03
2022-11-05T15:15:23.552Z,5.57
2022-11-05T15:18:18.358Z,5.33
2022-11-05T15:20:56.566Z,4.97
2022-11-05T15:23:29.503Z,4.57
2022-11-05T15:26:08.280Z,5.17
2022-11-05T15:28:43.233Z,5.53
2022-11-05T15:31:27.792Z,5.33
2022-11-05T15:34:19.098Z,4.80
2022-11-05T15:36:56.175Z,4.63
2022-11-05T15:39:34.083Z,5.60
2022-11-05T15:42:08.703Z,5.40
2022-11-05T15:44:42.964Z,5.43
2022-11-05T15:47:23.619Z,5.80
2022-11-05T15:49:56.984Z,6.20
2022-11-05T15:52:36.637Z,5.80
2022-11-05T15:55:23.846Z,6.00
2022-11-05T15:57:58.577Z,5.77
2022-11-05T16:00:31.113Z,5.20
2022-11-05T16:03:07.545Z,5.40
2022-11-05T16:05:45.804Z,6.30
2022-11-05T16:08:23.545Z,6.20
2022-11-05T16:10:58.167Z,6.33
2022-11-05T16:13:35.563Z,5.93
2022-11-05T16:16:08.869Z,6.97
2022-11-05T16:18:40.439Z,6.60
2022-11-05T16:21:13.202Z,6.67
2022-11-05T16:23:56.177Z,5.97
2022-11-05T16:29:31.297Z,6.27
2022-11-05T16:32:04.816Z,5.83
2022-11-05T16:34:40.348Z,6.47
2022-11-05T16:37:16.394Z,6.00
2022-11-05T16:39:49.335Z,5.20
2022-11-05T16:42:39.477Z,5.67
2022-11-05T16:45:14.026Z,5.20
2022-11-05T16:47:44.958Z,6.00
2022-11-05T16:50:22.369Z,5.90
2022-11-05T16:52:52.987Z,5.90
2022-11-05T16:55:26.410Z,5.93
2022-11-05T16:57:58.439Z,6.40
2022-11-05T17:00:29.594Z,5.97
2022-11-05T17:02:59.609Z,6.10
2022-11-05T17:05:32.119Z,7.10
2022-11-05T17:08:03.596Z,6.97
2022-11-05T17:10:37.394Z,6.27
2022-11-05T17:13:08.526Z,6.53
2022-11-05T17:15:39.510Z,6.43
2022-11-05T17:18:14.044Z,6.37
2022-11-05T17:20:51.355Z,6.00
2022-11-05T17:23:26.743Z,6.23
2022-11-05T17:26:03.569Z,5.70
2022-11-05T17:28:36.038Z,6.70
2022-11-05T17:31:09.348Z,7.17
2022-11-05T17:33:42.105Z,5.97
2022-11-05T17:36:17.601Z,7.30
2022-11-05T17:38:48.490Z,6.30
2022-11-05T17:41:23.935Z,7.73
2022-11-05T17:43:57.880Z,6.90
2022-11-05T17:46:28.777Z,5.63
2022-11-05T17:48:58.666Z,6.70
2022-11-05T17:51:29.671Z,6.70
2022-11-05T17:54:01.005Z,6.37
2022-11-05T17:56:40.276Z,6.20
2022-11-05T17:59:13.346Z,6.50
2022-11-05T18:01:46.149Z,6.37
2022-11-05T18:04:17.166Z,5.63
2022-11-05T18:06:49.242Z,6.80
2022-11-05T18:09:23.179Z,5.97
2022-11-05T18:11:56.778Z,6.20
2022-11-05T18:14:27.094Z,5.33
2022-11-05T18:17:00.281Z,6.37
2022-11-05T18:19:30.490Z,5.90
2022-11-05T18:22:00.533Z,6.33
2022-11-05T18:24:31.949Z,5.53
2022-11-05T18:27:04.526Z,5.80
2022-11-05T18:29:36.551Z,5.40
2022-11-05T18:32:07.330Z,4.67
2022-11-05T18:34:38.775Z,5.00
2022-11-05T18:37:09.869Z,5.03
2022-11-05T18:39:40.897Z,4.70
2022-11-05T18:42:14.472Z,4.87
2022-11-05T18:44:45.541Z,4.53
2022-11-05T18:47:17.741Z,4.97
2022-11-05T18:49:47.558Z,4.03
2022-11-05T18:52:19.520Z,4.67
2022-11-05T18:54:50.704Z,4.90
2022-11-05T18:57:23.317Z,4.80
2022-11-05T18:59:53.370Z,5.43
2022-11-05T19:02:24.519Z,3.87
2022-11-05T19:05:26.796Z,3.90
2022-11-05T19:07:47.354Z,4.07
2022-11-05T19:10:18.580Z,4.00
2022-11-05T19:12:52.213Z,4.10
2022-11-05T19:15:23.153Z,3.80
2022-11-05T19:17:53.239Z,3.60
2022-11-05T19:20:24.052Z,4.00
2022-11-05T19:22:54.854Z,4.13
2022-11-05T19:25:25.896Z,3.63
2022-11-05T19:27:59.508Z,4.20
2022-11-05T19:30:30.490Z,4.50
2022-11-05T19:33:01.456Z,4.40
2022-11-05T19:35:34.658Z,4.40
2022-11-05T19:38:09.739Z,3.97
2022-11-05T19:40:40.350Z,3.63
2022-11-05T19:43:13.056Z,3.40
2022-11-05T19:45:45.284Z,3.43
2022-11-05T19:48:19.510Z,3.97
2022-11-05T19:50:51.111Z,3.40
2022-11-05T19:53:22.135Z,3.50
2022-11-05T19:55:53.236Z,3.80
2022-11-05T19:58:26.811Z,4.30
2022-11-05T20:00:58.614Z,3.90
2022-11-05T20:03:29.655Z,2.87
2022-11-05T20:06:04.936Z,3.00
2022-11-05T20:08:53.077Z,3.83
2022-11-05T20:11:26.574Z,4.30
2022-11-05T20:13:59.315Z,4.23
2022-11-05T20:16:36.845Z,4.70
2022-11-05T20:19:09.852Z,3.30
2022-11-05T20:21:41.169Z,3.53
2022-11-05T20:24:17.447Z,3.40
2022-11-05T20:26:53.396Z,3.00
2022-11-05T20:29:34.706Z,3.17
2022-11-05T20:32:07.039Z,3.07
2022-11-05T20:34:38.142Z,2.90
2022-11-05T20:37:09.186Z,3.50
2022-11-05T20:39:40.166Z,2.90
2022-11-05T20:42:10.193Z,3.33
2022-11-05T20:44:44.771Z,2.27
2022-11-05T20:47:15.988Z,2.70
2022-11-05T20:49:45.957Z,3.17
2022-11-05T20:52:18.387Z,3.60
2022-11-05T20:54:50.775Z,3.30
2022-11-05T20:57:22.396Z,4.00
2022-11-05T20:59:56.878Z,3.23
2022-11-05T21:02:27.925Z,2.70
2022-11-05T21:04:58.970Z,2.93
2022-11-05T21:07:30.004Z,2.93
2022-11-05T21:10:00.033Z,2.67
2022-11-05T21:12:32.055Z,3.37
2022-11-05T21:15:05.942Z,2.70
2022-11-05T21:17:36.743Z,2.80
2022-11-05T21:20:09.162Z,3.00
2022-11-05T21:22:39.150Z,2.70
2022-11-05T21:25:10.580Z,3.40
2022-11-05T21:27:43.741Z,2.57
2022-11-05T21:30:17.086Z,2.73
2022-11-05T21:32:47.977Z,2.70
2022-11-05T21:35:17.952Z,3.10
2022-11-05T21:37:47.915Z,3.20
2022-11-05T21:40:19.070Z,3.07
2022-11-05T21:42:50.150Z,3.30
2022-11-05T21:45:23.608Z,3.20
2022-11-05T21:47:54.462Z,3.97
2022-11-05T21:50:44.918Z,3.70
2022-11-05T21:53:29.167Z,3.37
2022-11-05T21:56:16.259Z,3.33
2022-11-05T21:58:58.621Z,3.47
2022-11-05T22:01:31.784Z,3.50
2022-11-05T22:04:03.319Z,3.43
2022-11-05T22:06:35.471Z,3.80
2022-11-05T22:09:05.263Z,3.80
2022-11-05T22:11:38.808Z,3.83
2022-11-05T22:14:08.761Z,3.33
2022-11-05T22:16:41.323Z,3.43
2022-11-05T22:19:12.250Z,3.37
2022-11-05T22:21:42.140Z,3.80
2022-11-05T22:24:12.337Z,4.17
2022-11-05T22:26:42.982Z,3.80
2022-11-05T22:29:13.208Z,3.70
2022-11-05T22:31:45.870Z,3.60
2022-11-05T22:34:15.729Z,4.00
2022-11-05T22:36:45.844Z,3.90
2022-11-05T22:39:16.500Z,4.60
2022-11-05T22:41:47.023Z,3.90
2022-11-05T22:44:17.372Z,4.00
2022-11-05T22:46:49.814Z,4.03
2022-11-05T22:49:19.832Z,3.60
2022-11-05T22:51:49.589Z,3.20
2022-11-05T22:54:19.362Z,4.03
2022-11-05T22:56:50.282Z,3.60
2022-11-05T22:59:20.425Z,3.73
2022-11-05T23:01:53.011Z,3.70
2022-11-05T23:04:22.884Z,3.23
2022-11-05T23:07:05.089Z,3.67
2022-11-05T23:09:49.581Z,3.70
2022-11-05T23:12:28.631Z,3.53
2022-11-05T23:15:00.346Z,3.97
2022-11-05T23:18:00.305Z,3.87
2022-11-05T23:20:42.541Z,3.93
2022-11-05T23:23:31.684Z,3.80
2022-11-05T23:26:22.205Z,3.47
2022-11-05T23:28:51.985Z,4.00
2022-11-05T23:31:34.389Z,3.80
2022-11-05T23:34:07.078Z,4.37
2022-11-05T23:36:51.672Z,3.70
2022-11-05T23:39:21.486Z,3.90
2022-11-05T23:42:03.835Z,4.07
2022-11-05T23:44:46.074Z,3.67
2022-11-05T23:47:28.334Z,4.37
2022-11-05T23:50:00.689Z,3.50
2022-11-05T23:52:30.529Z,4.27
2022-11-05T23:55:00.330Z,4.23
2022-11-05T23:57:30.164Z,4.17
2022-11-05T23:59:59.955Z,3.10
